createdAt,value
2023-05-21T00:01:07.741Z,13.17
2023-05-21T00:03:38.069Z,12.60
2023-05-21T00:08:53.166Z,13.87
2023-05-21T00:11:22.461Z,12.10
2023-05-21T00:14:03.109Z,13.70
2023-05-21T00:16:59.087Z,12.83
2023-05-21T00:19:43.628Z,12.90
2023-05-21T00:22:15.557Z,12.93
2023-05-21T00:24:48.528Z,12.67
2023-05-21T00:27:18.138Z,13.80
2023-05-21T00:29:49.906Z,13.53
2023-05-21T00:32:22.560Z,13.37
2023-05-21T00:34:53.321Z,14.47
2023-05-21T00:37:26.410Z,13.13
2023-05-21T00:39:55.352Z,12.60
2023-05-21T00:42:37.702Z,11.90
2023-05-21T00:48:29.247Z,12.00
2023-05-21T00:51:00.790Z,12.30
2023-05-21T00:53:36.456Z,13.07
2023-05-21T00:58:52.958Z,12.17
2023-05-21T01:01:39.296Z,13.00
2023-05-21T01:04:30.270Z,12.37
2023-05-21T01:07:01.211Z,12.10
2023-05-21T01:09:31.320Z,13.50
2023-05-21T01:12:06.053Z,12.80
2023-05-21T01:14:39.040Z,12.53
2023-05-21T01:17:13.453Z,11.90
2023-05-21T01:19:45.020Z,12.13
2023-05-21T01:22:17.689Z,12.43
2023-05-21T01:24:57.005Z,12.80
2023-05-21T01:27:24.562Z,11.60
2023-05-21T01:29:53.161Z,12.10
2023-05-21T01:32:35.566Z,13.70
2023-05-21T01:35:28.016Z,11.80
2023-05-21T01:38:07.565Z,13.10
2023-05-21T01:40:53.052Z,13.63
2023-05-21T01:43:46.707Z,12.90
2023-05-21T01:46:26.956Z,11.73
2023-05-21T01:48:54.910Z,12.80
2023-05-21T01:51:23.321Z,12.73
2023-05-21T01:53:50.969Z,13.07
2023-05-21T01:56:22.308Z,14.23
2023-05-21T01:58:51.215Z,13.60
2023-05-21T02:01:19.577Z,13.20
2023-05-21T02:03:46.892Z,12.43
2023-05-21T02:06:14.016Z,13.83
2023-05-21T02:08:41.778Z,13.40
2023-05-21T02:11:09.430Z,13.63
2023-05-21T02:13:44.023Z,13.83
2023-05-21T02:16:11.771Z,13.87
2023-05-21T02:18:39.765Z,13.77
2023-05-21T02:21:06.867Z,12.50
2023-05-21T02:23:35.482Z,13.53
2023-05-21T02:26:04.393Z,12.73
2023-05-21T02:28:33.043Z,13.07
2023-05-21T02:31:02.367Z,13.20
2023-05-21T02:33:29.529Z,12.27
2023-05-21T02:35:58.820Z,13.93
2023-05-21T02:38:26.815Z,12.00
2023-05-21T02:40:54.240Z,13.37
2023-05-21T02:43:23.039Z,13.20
2023-05-21T02:45:52.253Z,13.70
2023-05-21T02:48:19.934Z,13.33
2023-05-21T02:50:47.844Z,14.00
2023-05-21T02:53:15.356Z,12.60
2023-05-21T02:55:42.602Z,12.33
2023-05-21T02:58:09.910Z,12.53
2023-05-21T03:00:37.682Z,11.70
2023-05-21T03:03:05.343Z,13.77
2023-05-21T03:05:36.443Z,11.93
2023-05-21T03:08:04.255Z,12.07
2023-05-21T03:10:32.724Z,13.57
2023-05-21T03:13:00.710Z,13.40
2023-05-21T03:15:27.906Z,12.87
2023-05-21T03:17:57.358Z,13.20
2023-05-21T03:20:24.324Z,13.50
2023-05-21T03:22:53.297Z,13.37
2023-05-21T03:25:21.813Z,13.80
2023-05-21T03:27:49.734Z,12.13
2023-05-21T03:30:18.043Z,12.80
2023-05-21T03:32:45.332Z,13.37
2023-05-21T03:35:12.935Z,11.90
2023-05-21T03:37:40.587Z,13.40
2023-05-21T03:40:08.204Z,13.03
2023-05-21T03:42:35.300Z,12.83
2023-05-21T03:45:05.558Z,12.17
2023-05-21T03:47:32.797Z,12.43
2023-05-21T03:49:59.817Z,13.30
2023-05-21T03:52:27.073Z,11.80
2023-05-21T03:54:54.035Z,12.93
2023-05-21T03:57:21.421Z,11.67
2023-05-21T03:59:48.726Z,12.27
2023-05-21T04:02:17.024Z,11.57
2023-05-21T04:04:45.707Z,11.70
2023-05-21T04:07:15.536Z,11.40
2023-05-21T04:09:43.809Z,10.93
2023-05-21T04:12:10.711Z,12.33
2023-05-21T04:14:38.077Z,11.00
2023-05-21T04:17:10.832Z,11.70
2023-05-21T04:19:38.785Z,11.00
2023-05-21T04:22:06.549Z,12.27
2023-05-21T04:24:33.736Z,11.10
2023-05-21T04:27:01.907Z,12.13
2023-05-21T04:29:32.566Z,11.60
2023-05-21T04:32:01.220Z,11.73
2023-05-21T04:34:33.020Z,12.50
2023-05-21T04:37:02.795Z,10.10
2023-05-21T04:39:34.886Z,11.70
2023-05-21T04:42:04.244Z,11.17
2023-05-21T04:44:32.730Z,9.97
2023-05-21T04:47:01.706Z,11.13
2023-05-21T04:49:33.489Z,10.43
2023-05-21T04:52:04.713Z,11.17
2023-05-21T04:54:35.344Z,11.13
2023-05-21T04:57:03.740Z,11.03
2023-05-21T04:59:33.140Z,10.40
2023-05-21T05:02:01.097Z,10.60
2023-05-21T05:04:28.869Z,11.53
2023-05-21T05:06:56.550Z,11.60
2023-05-21T05:09:25.715Z,11.37
2023-05-21T05:11:54.564Z,11.90
2023-05-21T05:14:22.857Z,11.23
2023-05-21T05:16:51.734Z,10.60
2023-05-21T05:19:19.161Z,11.30
2023-05-21T05:21:47.110Z,10.57
2023-05-21T05:24:16.509Z,10.43
2023-05-21T05:26:45.076Z,10.60
2023-05-21T05:29:12.057Z,10.13
2023-05-21T05:31:39.272Z,10.10
2023-05-21T05:34:06.449Z,9.80
2023-05-21T05:36:33.879Z,9.90
2023-05-21T05:39:00.749Z,9.47
2023-05-21T05:41:27.654Z,9.03
2023-05-21T05:43:54.439Z,8.13
2023-05-21T05:46:21.309Z,10.00
2023-05-21T05:48:48.193Z,9.90
2023-05-21T05:51:15.530Z,10.80
2023-05-21T05:53:43.036Z,9.90
2023-05-21T05:56:09.872Z,10.03
2023-05-21T05:58:36.618Z,10.40
2023-05-21T06:01:03.376Z,10.70
2023-05-21T06:03:30.893Z,9.43
2023-05-21T06:05:58.286Z,9.63
2023-05-21T06:08:25.221Z,9.20
2023-05-21T06:10:52.051Z,9.67
2023-05-21T06:13:18.933Z,9.40
2023-05-21T06:15:45.732Z,9.70
2023-05-21T06:18:12.985Z,8.53
2023-05-21T06:20:39.774Z,9.80
2023-05-21T06:23:08.802Z,8.60
2023-05-21T06:25:36.042Z,9.70
2023-05-21T06:28:03.134Z,10.97
2023-05-21T06:30:30.090Z,8.80
2023-05-21T06:32:57.570Z,9.40
2023-05-21T06:35:24.935Z,9.20
2023-05-21T06:37:52.136Z,8.90
2023-05-21T06:40:18.891Z,9.27
2023-05-21T06:42:46.190Z,8.70
2023-05-21T06:45:12.969Z,8.10
2023-05-21T06:47:39.863Z,8.30
2023-05-21T06:50:07.207Z,8.50
2023-05-21T06:52:33.973Z,8.23
2023-05-21T06:55:00.749Z,8.63
2023-05-21T06:57:27.481Z,7.57
2023-05-21T06:59:54.332Z,7.93
2023-05-21T07:02:21.182Z,8.80
2023-05-21T07:04:48.116Z,7.70
2023-05-21T07:07:15.060Z,8.10
2023-05-21T07:09:41.876Z,7.60
2023-05-21T07:12:08.676Z,7.63
2023-05-21T07:14:35.880Z,7.63
2023-05-21T07:17:02.804Z,7.47
2023-05-21T07:19:29.869Z,7.10
2023-05-21T07:21:57.834Z,8.20
2023-05-21T07:24:27.551Z,7.00
2023-05-21T07:26:54.293Z,6.13
2023-05-21T07:29:21.510Z,6.97
2023-05-21T07:31:48.229Z,6.53
2023-05-21T07:34:14.992Z,7.40
2023-05-21T07:36:41.839Z,6.80
2023-05-21T07:39:08.686Z,8.00
2023-05-21T07:41:35.882Z,6.77
2023-05-21T07:44:02.857Z,7.03
2023-05-21T07:46:29.748Z,6.63
2023-05-21T07:48:56.570Z,8.20
2023-05-21T07:51:23.416Z,7.27
2023-05-21T07:53:50.219Z,7.60
2023-05-21T07:56:16.999Z,7.30
2023-05-21T07:58:46.078Z,6.90
2023-05-21T08:01:12.931Z,6.90
2023-05-21T08:03:39.990Z,6.77
2023-05-21T08:06:06.977Z,7.50
2023-05-21T08:08:34.263Z,7.03
2023-05-21T08:11:01.953Z,6.07
2023-05-21T08:13:28.686Z,6.87
2023-05-21T08:15:55.450Z,7.23
2023-05-21T08:18:23.926Z,7.27
2023-05-21T08:20:51.704Z,7.07
2023-05-21T08:23:18.429Z,7.00
2023-05-21T08:25:45.759Z,7.20
2023-05-21T08:28:12.960Z,7.30
2023-05-21T08:30:39.679Z,6.37
2023-05-21T08:33:06.531Z,7.30
2023-05-21T08:35:33.350Z,6.60
2023-05-21T08:38:00.136Z,7.10
2023-05-21T08:40:26.858Z,7.27
2023-05-21T08:42:53.599Z,7.23
2023-05-21T08:45:21.314Z,7.00
2023-05-21T08:47:48.424Z,6.60
2023-05-21T08:50:16.776Z,7.33
2023-05-21T08:52:43.511Z,6.50
2023-05-21T08:55:10.750Z,7.23
2023-05-21T08:57:38.038Z,7.17
2023-05-21T09:00:07.408Z,7.07
2023-05-21T09:02:34.718Z,7.37
2023-05-21T09:05:03.502Z,7.50
2023-05-21T09:07:31.810Z,7.07
2023-05-21T09:10:08.277Z,6.50
2023-05-21T09:12:35.111Z,7.13
2023-05-21T09:15:02.209Z,7.53
2023-05-21T09:17:29.031Z,7.13
2023-05-21T09:20:16.056Z,7.27
2023-05-21T09:22:43.849Z,6.83
2023-05-21T09:25:11.948Z,6.90
2023-05-21T09:27:39.222Z,7.37
2023-05-21T09:30:17.852Z,9.07
2023-05-21T09:32:45.123Z,7.53
2023-05-21T09:35:15.387Z,7.90
2023-05-21T09:37:45.828Z,7.53
2023-05-21T09:40:14.111Z,7.70
2023-05-21T09:42:41.700Z,6.97
2023-05-21T09:45:09.830Z,7.13
2023-05-21T09:47:46.810Z,8.00
2023-05-21T09:50:14.564Z,7.47
2023-05-21T09:52:42.374Z,7.30
2023-05-21T09:55:13.435Z,8.30
2023-05-21T09:57:43.852Z,7.43
2023-05-21T10:00:18.524Z,7.77
2023-05-21T10:02:47.259Z,7.23
2023-05-21T10:05:15.041Z,7.37
2023-05-21T10:07:42.846Z,7.80
2023-05-21T10:10:14.557Z,7.30
2023-05-21T10:12:46.605Z,6.67
2023-05-21T10:15:16.848Z,7.13
2023-05-21T10:17:44.772Z,7.00
2023-05-21T10:20:13.187Z,8.43
2023-05-21T10:22:41.045Z,7.10
2023-05-21T10:25:08.813Z,7.63
2023-05-21T10:27:37.148Z,6.93
2023-05-21T10:30:07.467Z,6.97
2023-05-21T10:32:35.422Z,6.80
2023-05-21T10:35:03.115Z,7.10
2023-05-21T10:37:30.638Z,7.30
2023-05-21T10:39:58.116Z,7.47
2023-05-21T10:43:04.370Z,7.20
2023-05-21T10:45:57.576Z,6.70
2023-05-21T10:48:36.169Z,7.17
2023-05-21T10:51:29.509Z,6.40
2023-05-21T10:54:12.829Z,6.60
2023-05-21T10:56:40.820Z,7.30
2023-05-21T10:59:45.401Z,7.50
2023-05-21T11:02:14.193Z,7.50
2023-05-21T11:04:43.464Z,7.20
2023-05-21T11:07:11.283Z,7.73
2023-05-21T11:09:38.867Z,7.20
2023-05-21T11:12:08.283Z,7.10
2023-05-21T11:14:40.062Z,7.27
2023-05-21T11:17:08.061Z,7.10
2023-05-21T11:19:38.601Z,7.20
2023-05-21T11:22:26.113Z,7.20
2023-05-21T11:24:54.124Z,7.53
2023-05-21T11:27:37.832Z,7.40
2023-05-21T11:30:08.872Z,6.67
2023-05-21T11:32:42.551Z,7.13
2023-05-21T11:35:10.048Z,7.80
2023-05-21T11:37:40.889Z,7.53
2023-05-21T11:40:20.707Z,8.60
2023-05-21T11:42:51.748Z,8.00
2023-05-21T11:45:20.151Z,7.37
2023-05-21T11:47:49.208Z,7.40
2023-05-21T11:50:17.292Z,7.23
2023-05-21T11:52:45.464Z,7.97
2023-05-21T11:55:15.677Z,7.30
2023-05-21T11:57:44.808Z,7.97
2023-05-21T12:00:16.490Z,7.13
2023-05-21T12:02:49.024Z,7.80
2023-05-21T12:05:16.917Z,7.63
2023-05-21T12:07:48.916Z,7.27
2023-05-21T12:10:16.898Z,8.10
2023-05-21T12:12:54.961Z,7.90
2023-05-21T12:15:24.695Z,8.30
2023-05-21T12:17:53.383Z,6.93
2023-05-21T12:20:21.116Z,7.40
2023-05-21T12:22:49.969Z,8.30
2023-05-21T12:25:24.081Z,8.00
2023-05-21T12:27:58.782Z,7.97
2023-05-21T12:30:27.278Z,8.13
2023-05-21T12:33:00.118Z,7.13
2023-05-21T12:38:13.356Z,7.43
2023-05-21T12:40:46.828Z,7.23
2023-05-21T12:43:38.003Z,7.20
2023-05-21T12:51:45.470Z,6.80
2023-05-21T13:00:27.663Z,9.60
2023-05-21T13:05:43.085Z,10.90
2023-05-21T13:16:33.211Z,7.67
2023-05-21T13:28:22.854Z,6.80
2023-05-21T13:34:33.248Z,6.90
2023-05-21T13:49:15.630Z,7.60
2023-05-21T14:07:22.360Z,6.70
2023-05-21T14:21:18.592Z,37.57
2023-05-21T14:23:48.690Z,9.17
2023-05-21T14:26:22.221Z,6.93
2023-05-21T14:28:59.579Z,7.57
2023-05-21T14:37:52.480Z,6.77
2023-05-21T14:40:23.519Z,8.03
2023-05-21T14:43:11.110Z,14.30
2023-05-21T14:48:32.479Z,7.60
2023-05-21T14:51:01.581Z,8.53
2023-05-21T14:53:31.489Z,13.10
2023-05-21T14:56:05.640Z,6.47
2023-05-21T14:58:50.862Z,6.20
2023-05-21T15:21:45.301Z,10.97
2023-05-21T15:24:19.196Z,14.53
2023-05-21T16:26:56.024Z,7.90
2023-05-21T16:53:26.267Z,7.20
2023-05-21T16:56:02.023Z,6.60
2023-05-21T16:58:32.033Z,7.80
2023-05-21T17:01:00.410Z,7.00
2023-05-21T17:03:28.905Z,16.97
2023-05-21T17:05:56.631Z,7.27
2023-05-21T17:08:24.498Z,7.93
2023-05-21T17:10:52.145Z,7.10
2023-05-21T17:13:22.845Z,7.70
2023-05-21T17:15:51.937Z,7.43
2023-05-21T17:18:19.553Z,7.30
2023-05-21T17:20:47.043Z,7.80
2023-05-21T17:23:14.987Z,7.20
2023-05-21T17:25:42.587Z,7.77
2023-05-21T17:28:10.180Z,8.27
2023-05-21T17:30:37.470Z,6.90
2023-05-21T17:33:04.987Z,8.37
2023-05-21T17:35:32.475Z,7.90
2023-05-21T17:37:59.757Z,7.43
2023-05-21T17:40:27.267Z,7.90
2023-05-21T17:42:54.753Z,8.20
2023-05-21T17:45:22.343Z,7.80
2023-05-21T17:47:50.258Z,7.90
2023-05-21T17:50:17.954Z,8.23
2023-05-21T17:52:45.510Z,8.03
2023-05-21T17:55:13.140Z,8.07
2023-05-21T17:57:40.714Z,9.70
2023-05-21T18:00:08.763Z,8.37
2023-05-21T18:02:36.414Z,9.13
2023-05-21T18:05:04.208Z,8.60
2023-05-21T18:07:31.883Z,8.90
2023-05-21T18:09:59.624Z,8.57
2023-05-21T18:12:27.166Z,7.50
2023-05-21T18:14:57.066Z,8.33
2023-05-21T18:17:24.791Z,7.77
2023-05-21T18:19:52.437Z,8.37
2023-05-21T18:22:20.058Z,7.53
2023-05-21T18:24:47.534Z,8.20
2023-05-21T18:27:15.669Z,8.90
2023-05-21T18:29:43.337Z,8.60
2023-05-21T18:32:11.902Z,8.93
2023-05-21T18:34:39.582Z,8.00
2023-05-21T18:37:07.107Z,8.80
2023-05-21T18:39:34.460Z,9.47
2023-05-21T18:42:12.899Z,10.20
2023-05-21T18:44:40.608Z,9.83
2023-05-21T18:47:08.263Z,9.33
2023-05-21T18:49:36.539Z,9.40
2023-05-21T18:52:04.794Z,8.50
2023-05-21T18:54:32.031Z,9.80
2023-05-21T18:57:00.567Z,8.67
2023-05-21T18:59:28.630Z,9.67
2023-05-21T19:01:55.942Z,9.00
2023-05-21T19:04:23.310Z,8.67
2023-05-21T19:06:50.582Z,8.33
2023-05-21T19:09:17.831Z,9.37
2023-05-21T19:11:45.005Z,8.30
2023-05-21T19:14:12.301Z,9.90
2023-05-21T19:16:39.623Z,9.40
2023-05-21T19:19:06.629Z,10.40
2023-05-21T19:21:35.156Z,8.57
2023-05-21T19:24:04.806Z,10.70
2023-05-21T19:26:32.999Z,10.60
2023-05-21T19:29:00.190Z,10.47
2023-05-21T19:31:27.404Z,10.50
2023-05-21T19:33:54.653Z,10.40
2023-05-21T19:36:22.014Z,11.67
2023-05-21T19:38:49.663Z,11.00
2023-05-21T19:41:19.777Z,10.23
2023-05-21T19:43:46.598Z,9.77
2023-05-21T19:46:15.979Z,9.97
2023-05-21T19:48:45.413Z,10.20
2023-05-21T19:51:12.701Z,9.63
2023-05-21T19:53:39.495Z,9.77
2023-05-21T19:56:06.577Z,10.73
2023-05-21T19:58:33.681Z,10.50
2023-05-21T20:01:00.583Z,9.60
2023-05-21T20:03:28.863Z,10.60
2023-05-21T20:05:57.194Z,10.97
2023-05-21T20:08:24.005Z,11.40
2023-05-21T20:10:52.109Z,9.97
2023-05-21T20:13:19.510Z,11.13
2023-05-21T20:15:48.178Z,10.90
2023-05-21T20:18:15.698Z,11.33
2023-05-21T20:20:43.151Z,10.60
2023-05-21T20:23:10.008Z,12.43
2023-05-21T20:25:36.827Z,11.20
2023-05-21T20:28:05.168Z,11.77
2023-05-21T20:30:36.324Z,11.60
2023-05-21T20:33:03.675Z,9.73
2023-05-21T20:35:30.658Z,10.10
2023-05-21T20:37:57.535Z,11.63
2023-05-21T20:40:24.821Z,10.00
2023-05-21T20:42:53.665Z,10.60
2023-05-21T20:45:20.991Z,11.40
2023-05-21T20:47:50.117Z,10.80
2023-05-21T20:50:25.978Z,10.50
2023-05-21T20:52:52.851Z,10.00
2023-05-21T20:55:20.839Z,9.90
2023-05-21T20:57:48.020Z,9.80
2023-05-21T21:00:16.189Z,10.10
2023-05-21T21:02:44.088Z,10.50
2023-05-21T21:05:11.671Z,11.80
2023-05-21T21:07:38.982Z,10.50
2023-05-21T21:10:06.280Z,10.20
2023-05-21T21:12:33.510Z,9.93
2023-05-21T21:15:00.435Z,11.60
2023-05-21T21:17:27.346Z,10.63
2023-05-21T21:19:54.282Z,11.20
2023-05-21T21:22:21.568Z,10.03
2023-05-21T21:24:48.361Z,10.53
2023-05-21T21:27:15.230Z,10.40
2023-05-21T21:29:42.454Z,10.93
2023-05-21T21:32:09.322Z,10.70
2023-05-21T21:34:36.678Z,10.77
2023-05-21T21:37:04.070Z,11.40
2023-05-21T21:39:31.038Z,11.13
2023-05-21T21:41:58.246Z,10.60
2023-05-21T21:44:25.090Z,10.43
2023-05-21T21:46:52.343Z,12.00
2023-05-21T21:49:19.137Z,11.60
2023-05-21T21:51:45.963Z,10.90
2023-05-21T21:54:13.255Z,10.63
2023-05-21T21:56:40.246Z,11.30
2023-05-21T21:59:07.033Z,12.20
2023-05-21T22:01:35.874Z,10.13
2023-05-21T22:04:02.748Z,10.57
2023-05-21T22:06:30.145Z,12.13
2023-05-21T22:08:57.055Z,11.63
2023-05-21T22:11:24.213Z,10.90
2023-05-21T22:13:51.056Z,12.00
2023-05-21T22:16:18.794Z,11.87
2023-05-21T22:18:46.471Z,10.83
2023-05-21T22:27:02.509Z,11.03
2023-05-21T22:29:38.445Z,12.20
2023-05-21T22:32:08.678Z,11.73
2023-05-21T23:26:05.452Z,12.93
2023-05-21T23:29:24.531Z,12.43
